Green Ice — C6SO4 — position and weather

sailwx.info

Track history (hours):
 
Tides and Currents Weather Stations Pressure Air Temp Water Temp Dewpoint Dewpoint Depression Visibility Wind Speed Wind Dir Waves Ship Positions

Green Ice

Last reported at 2016-Apr-29 17:33 UTC. Time now 2016-Apr-29 17:50 UTC.
Position N 57°49' E 010°36'.

Length 86 m; draft 4.9 m.

Type: Other ship. MMSI: 311411000.

Date/timePositionNaut miles runAvg speedWind from/ knotsBaromVisibWave heightAir tempDewpointWater temp
2016-Apr-29 17:33N 57°49' E 010°36'8 0.2
2016-Apr-27 19:13N 57°41' E 010°35'0 0.0
2016-Apr-27 18:31N 57°41' E 010°35'0 0.0
2016-Apr-27 17:31N 57°41' E 010°35'0 0.0
2016-Apr-27 16:31N 57°41' E 010°35'8 0.7
2016-Apr-27 04:33N 57°40' E 010°51'10 9.9
2016-Apr-27 03:33N 57°36' E 011°08'1111.4
2016-Apr-27 02:33N 57°29' E 011°24'1211.6
2016-Apr-27 01:33N 57°18' E 011°32'1312.3
2016-Apr-27 00:30N 57°06' E 011°40'1112.1
2016-Apr-26 23:33N 56°55' E 011°49'1211.9
2016-Apr-26 22:33N 56°45' E 011°58'1211.7
2016-Apr-26 21:33N 56°34' E 012°08'2311.6
2016-Apr-26 19:33N 56°13' E 012°26'1414.4
2016-Apr-26 18:34N 56°02' E 012°40'1313.1
2016-Apr-26 17:33N 55°49' E 012°43'1211.7
2016-Apr-26 16:33N 55°37' E 012°42'1111.0
2016-Apr-26 15:33N 55°26' E 012°41'1110.6
2016-Apr-26 14:33N 55°16' E 012°50'1313.2
2016-Apr-26 13:33N 55°15' E 013°13'1313.3
2016-Apr-26 12:34N 55°14' E 013°36'1313.4
2016-Apr-26 11:34N 55°13' E 013°60'1212.0
2016-Apr-26 10:34N 55°17' E 014°20'1313.0
2016-Apr-26 09:34N 55°25' E 014°37'1313.4
2016-Apr-26 08:34N 55°27' E 015°00'1313.5
2016-Apr-26 07:34N 55°29' E 015°24'1413.4
2016-Apr-26 06:33N 55°30' E 015°48'  
2016-Apr-23 22:33N 55°27' E 015°47'1313.0
2016-Apr-23 21:34N 55°25' E 015°24'1312.8
2016-Apr-23 20:33N 55°24' E 015°01'1312.8
2016-Apr-23 19:34N 55°23' E 014°39'1312.8
2016-Apr-23 18:33N 55°13' E 014°25'1312.6
2016-Apr-23 17:33N 55°11' E 014°03'4013.0
2016-Apr-23 14:31N 55°15' E 012°54'1111.2
2016-Apr-23 13:33N 55°21' E 012°39'1211.7
2016-Apr-23 12:34N 55°32' E 012°42'1110.7
2016-Apr-23 11:34N 55°43' E 012°41'1211.9
2016-Apr-23 10:33N 55°55' E 012°39'1111.0
2016-Apr-23 09:34N 56°06' E 012°34'1212.3
2016-Apr-23 08:33N 56°13' E 012°16'3611.9
2016-Apr-23 05:33N 56°46' E 011°51'1312.5
2016-Apr-23 04:33N 56°58' E 011°43'1312.8
2016-Apr-23 03:33N 57°10' E 011°36'1312.6
2016-Apr-23 02:33N 57°21' E 011°28'1211.9
2016-Apr-23 01:33N 57°32' E 011°16'1111.4
2016-Apr-23 00:33N 57°39' E 011°00'1411.1
2016-Apr-22 23:15N 57°47' E 010°37'11311.7
2016-Apr-22 13:34N 57°53' E 007°04'1211.8
2016-Apr-22 12:33N 57°57' E 006°44'1212.4
2016-Apr-22 11:34N 58°04' E 006°25'1312.7
2016-Apr-22 10:32N 58°13' E 006°07'1313.2
2016-Apr-22 09:33N 58°22' E 005°49'1212.3
2016-Apr-22 08:33N 58°31' E 005°33'1212.4
2016-Apr-22 07:33N 58°43' E 005°25'1212.4
2016-Apr-22 06:34N 58°55' E 005°20'1312.5
2016-Apr-22 05:34N 59°08' E 005°20'3511.5
2016-Apr-22 02:33N 59°42' E 005°26'1212.5
2016-Apr-22 01:33N 59°54' E 005°31'  
Track history (hours):
 
Tides and Currents Weather Stations Pressure Air Temp Water Temp Dewpoint Dewpoint Depression Visibility Wind Speed Wind Dir Waves Ship Positions

Green Ice

Last reported at 2016-Apr-29 17:33 UTC. Time now 2016-Apr-29 17:50 UTC.
Position N 57°49' E 010°36'.

Length 86 m; draft 4.9 m.

Type: Other ship. MMSI: 311411000.

Date/timePositionNaut miles runAvg speedWind from/ knotsBaromVisibWave heightAir tempDewpointWater temp
2016-Apr-29 17:33N 57°49' E 010°36'8 0.2
2016-Apr-27 19:13N 57°41' E 010°35'0 0.0
2016-Apr-27 18:31N 57°41' E 010°35'0 0.0
2016-Apr-27 17:31N 57°41' E 010°35'0 0.0
2016-Apr-27 16:31N 57°41' E 010°35'8 0.7
2016-Apr-27 04:33N 57°40' E 010°51'10 9.9
2016-Apr-27 03:33N 57°36' E 011°08'1111.4
2016-Apr-27 02:33N 57°29' E 011°24'1211.6
2016-Apr-27 01:33N 57°18' E 011°32'1312.3
2016-Apr-27 00:30N 57°06' E 011°40'1112.1
2016-Apr-26 23:33N 56°55' E 011°49'1211.9
2016-Apr-26 22:33N 56°45' E 011°58'1211.7
2016-Apr-26 21:33N 56°34' E 012°08'2311.6
2016-Apr-26 19:33N 56°13' E 012°26'1414.4
2016-Apr-26 18:34N 56°02' E 012°40'1313.1
2016-Apr-26 17:33N 55°49' E 012°43'1211.7
2016-Apr-26 16:33N 55°37' E 012°42'1111.0
2016-Apr-26 15:33N 55°26' E 012°41'1110.6
2016-Apr-26 14:33N 55°16' E 012°50'1313.2
2016-Apr-26 13:33N 55°15' E 013°13'1313.3
2016-Apr-26 12:34N 55°14' E 013°36'1313.4
2016-Apr-26 11:34N 55°13' E 013°60'1212.0
2016-Apr-26 10:34N 55°17' E 014°20'1313.0
2016-Apr-26 09:34N 55°25' E 014°37'1313.4
2016-Apr-26 08:34N 55°27' E 015°00'1313.5
2016-Apr-26 07:34N 55°29' E 015°24'1413.4
2016-Apr-26 06:33N 55°30' E 015°48'  
2016-Apr-23 22:33N 55°27' E 015°47'1313.0
2016-Apr-23 21:34N 55°25' E 015°24'1312.8
2016-Apr-23 20:33N 55°24' E 015°01'1312.8
2016-Apr-23 19:34N 55°23' E 014°39'1312.8
2016-Apr-23 18:33N 55°13' E 014°25'1312.6
2016-Apr-23 17:33N 55°11' E 014°03'4013.0
2016-Apr-23 14:31N 55°15' E 012°54'1111.2
2016-Apr-23 13:33N 55°21' E 012°39'1211.7
2016-Apr-23 12:34N 55°32' E 012°42'1110.7
2016-Apr-23 11:34N 55°43' E 012°41'1211.9
2016-Apr-23 10:33N 55°55' E 012°39'1111.0
2016-Apr-23 09:34N 56°06' E 012°34'1212.3
2016-Apr-23 08:33N 56°13' E 012°16'3611.9
2016-Apr-23 05:33N 56°46' E 011°51'1312.5
2016-Apr-23 04:33N 56°58' E 011°43'1312.8
2016-Apr-23 03:33N 57°10' E 011°36'1312.6
2016-Apr-23 02:33N 57°21' E 011°28'1211.9
2016-Apr-23 01:33N 57°32' E 011°16'1111.4
2016-Apr-23 00:33N 57°39' E 011°00'1411.1
2016-Apr-22 23:15N 57°47' E 010°37'11311.7
2016-Apr-22 13:34N 57°53' E 007°04'1211.8
2016-Apr-22 12:33N 57°57' E 006°44'1212.4
2016-Apr-22 11:34N 58°04' E 006°25'1312.7
2016-Apr-22 10:32N 58°13' E 006°07'1313.2
2016-Apr-22 09:33N 58°22' E 005°49'1212.3
2016-Apr-22 08:33N 58°31' E 005°33'1212.4
2016-Apr-22 07:33N 58°43' E 005°25'1212.4
2016-Apr-22 06:34N 58°55' E 005°20'1312.5
2016-Apr-22 05:34N 59°08' E 005°20'3511.5
2016-Apr-22 02:33N 59°42' E 005°26'1212.5
2016-Apr-22 01:33N 59°54' E 005°31'  

Dump ship's entire track history